sensor_id;sensor_type;location;lat;lon;timestamp;temperature;humidity
43906;DHT22;29564;46.622;13.818;2022-07-12T08:54:57;21.20;65.60
43906;DHT22;29564;46.622;13.818;2022-07-12T08:55:58;21.10;66.10
43906;DHT22;29564;46.622;13.818;2022-07-12T08:56:59;21.20;66.40
43906;DHT22;29564;46.622;13.818;2022-07-12T08:58:01;21.20;67.70
43906;DHT22;29564;46.622;13.818;2022-07-12T08:59:10;21.30;67.80
43906;DHT22;29564;46.622;13.818;2022-07-12T09:00:11;21.30;67.40
43906;DHT22;29564;46.622;13.818;2022-07-12T09:01:13;21.20;67.60
43906;DHT22;29564;46.622;13.818;2022-07-12T09:02:14;21.20;67.90
43906;DHT22;29564;46.622;13.818;2022-07-12T09:03:15;21.30;68.00
43906;DHT22;29564;46.622;13.818;2022-07-12T09:04:22;21.30;68.30
43906;DHT22;29564;46.622;13.818;2022-07-12T09:05:25;21.30;68.60
43906;DHT22;29564;46.622;13.818;2022-07-12T09:06:26;21.30;68.60
43906;DHT22;29564;46.622;13.818;2022-07-12T09:07:27;21.30;68.70
43906;DHT22;29564;46.622;13.818;2022-07-12T09:08:29;21.40;68.60
43906;DHT22;29564;46.622;13.818;2022-07-12T09:09:31;21.40;66.60
43906;DHT22;29564;46.622;13.818;2022-07-12T09:10:32;21.40;66.80
43906;DHT22;29564;46.622;13.818;2022-07-12T09:11:37;21.40;67.70
43906;DHT22;29564;46.622;13.818;2022-07-12T09:12:38;21.40;66.80
43906;DHT22;29564;46.622;13.818;2022-07-12T09:13:51;21.50;68.50
43906;DHT22;29564;46.622;13.818;2022-07-12T09:14:53;21.50;69.10
43906;DHT22;29564;46.622;13.818;2022-07-12T09:15:55;21.50;67.50
43906;DHT22;29564;46.622;13.818;2022-07-12T09:17:12;21.60;69.30
43906;DHT22;29564;46.622;13.818;2022-07-12T09:18:16;21.60;68.70
43906;DHT22;29564;46.622;13.818;2022-07-12T09:19:18;21.60;69.50
43906;DHT22;29564;46.622;13.818;2022-07-12T09:20:20;21.70;68.20
43906;DHT22;29564;46.622;13.818;2022-07-12T09:21:30;21.70;68.70
43906;DHT22;29564;46.622;13.818;2022-07-12T09:22:31;21.70;69.10
43906;DHT22;29564;46.622;13.818;2022-07-12T09:23:32;21.70;69.20
43906;DHT22;29564;46.622;13.818;2022-07-12T09:24:33;21.80;68.70
43906;DHT22;29564;46.622;13.818;2022-07-12T09:25:38;21.90;69.10
43906;DHT22;29564;46.622;13.818;2022-07-12T09:26:39;21.80;66.80
43906;DHT22;29564;46.622;13.818;2022-07-12T09:27:46;21.80;66.70
43906;DHT22;29564;46.622;13.818;2022-07-12T09:28:48;21.80;67.00
43906;DHT22;29564;46.622;13.818;2022-07-12T09:29:49;21.90;67.40
43906;DHT22;29564;46.622;13.818;2022-07-12T09:30:51;21.90;66.00
43906;DHT22;29564;46.622;13.818;2022-07-12T09:31:55;21.90;67.10
43906;DHT22;29564;46.622;13.818;2022-07-12T09:33:17;21.90;68.00
43906;DHT22;29564;46.622;13.818;2022-07-12T09:34:37;22.00;68.30
43906;DHT22;29564;46.622;13.818;2022-07-12T09:37:07;22.00;69.70
43906;DHT22;29564;46.622;13.818;2022-07-12T09:38:08;22.10;67.50
43906;DHT22;29564;46.622;13.818;2022-07-12T09:39:12;22.10;66.40
43906;DHT22;29564;46.622;13.818;2022-07-12T09:40:13;22.10;66.10
43906;DHT22;29564;46.622;13.818;2022-07-12T09:41:18;22.20;66.80
43906;DHT22;29564;46.622;13.818;2022-07-12T09:42:19;22.20;67.30
43906;DHT22;29564;46.622;13.818;2022-07-12T09:43:20;22.10;67.30
43906;DHT22;29564;46.622;13.818;2022-07-12T09:44:22;22.20;66.70
43906;DHT22;29564;46.622;13.818;2022-07-12T09:45:24;22.10;66.20
43906;DHT22;29564;46.622;13.818;2022-07-12T09:46:26;22.20;67.40
43906;DHT22;29564;46.622;13.818;2022-07-12T09:47:27;22.20;67.00
43906;DHT22;29564;46.622;13.818;2022-07-12T09:48:28;22.30;69.00
43906;DHT22;29564;46.622;13.818;2022-07-12T09:49:29;22.30;69.10
43906;DHT22;29564;46.622;13.818;2022-07-12T09:50:30;22.30;67.40
43906;DHT22;29564;46.622;13.818;2022-07-12T09:51:33;22.20;66.00
43906;DHT22;29564;46.622;13.818;2022-07-12T09:52:36;22.20;66.60
43906;DHT22;29564;46.622;13.818;2022-07-12T09:54:44;22.20;66.70
43906;DHT22;29564;46.622;13.818;2022-07-12T09:55:47;22.20;66.70
43906;DHT22;29564;46.622;13.818;2022-07-12T09:56:49;22.20;67.60
43906;DHT22;29564;46.622;13.818;2022-07-12T09:57:51;22.20;65.50
43906;DHT22;29564;46.622;13.818;2022-07-12T09:58:57;22.30;66.70
43906;DHT22;29564;46.622;13.818;2022-07-12T09:59:58;22.30;64.70
43906;DHT22;29564;46.622;13.818;2022-07-12T10:00:59;22.30;66.60
43906;DHT22;29564;46.622;13.818;2022-07-12T10:02:01;22.40;66.40
43906;DHT22;29564;46.622;13.818;2022-07-12T10:03:04;22.40;65.30
43906;DHT22;29564;46.622;13.818;2022-07-12T10:04:06;22.40;65.10
43906;DHT22;29564;46.622;13.818;2022-07-12T10:05:07;22.40;64.20
43906;DHT22;29564;46.622;13.818;2022-07-12T10:06:09;22.40;65.50
43906;DHT22;29564;46.622;13.818;2022-07-12T10:07:11;22.50;66.00
43906;DHT22;29564;46.622;13.818;2022-07-12T10:08:17;22.50;65.30
43906;DHT22;29564;46.622;13.818;2022-07-12T10:09:19;22.60;65.00
43906;DHT22;29564;46.622;13.818;2022-07-12T10:10:20;22.60;64.20
43906;DHT22;29564;46.622;13.818;2022-07-12T10:11:24;22.70;63.10
43906;DHT22;29564;46.622;13.818;2022-07-12T10:12:25;22.70;63.40
43906;DHT22;29564;46.622;13.818;2022-07-12T10:13:26;22.80;63.50
43906;DHT22;29564;46.622;13.818;2022-07-12T10:14:28;22.90;64.70
43906;DHT22;29564;46.622;13.818;2022-07-12T10:15:29;23.00;65.00
43906;DHT22;29564;46.622;13.818;2022-07-12T10:16:33;23.10;65.00
43906;DHT22;29564;46.622;13.818;2022-07-12T10:17:35;23.10;61.90
43906;DHT22;29564;46.622;13.818;2022-07-12T10:18:36;23.20;63.70
43906;DHT22;29564;46.622;13.818;2022-07-12T10:19:37;23.10;63.50
43906;DHT22;29564;46.622;13.818;2022-07-12T10:20:41;23.20;63.30
43906;DHT22;29564;46.622;13.818;2022-07-12T10:21:42;23.10;59.30
43906;DHT22;29564;46.622;13.818;2022-07-12T10:22:47;22.90;58.60
43906;DHT22;29564;46.622;13.818;2022-07-12T10:23:48;22.80;59.40
43906;DHT22;29564;46.622;13.818;2022-07-12T10:24:50;22.80;62.10
43906;DHT22;29564;46.622;13.818;2022-07-12T10:25:53;22.80;61.60
43906;DHT22;29564;46.622;13.818;2022-07-12T10:26:54;22.80;62.70
43906;DHT22;29564;46.622;13.818;2022-07-12T10:27:55;22.80;61.10
43906;DHT22;29564;46.622;13.818;2022-07-12T10:29:07;22.80;60.80
43906;DHT22;29564;46.622;13.818;2022-07-12T10:30:14;22.80;61.70
43906;DHT22;29564;46.622;13.818;2022-07-12T10:31:15;22.90;64.70
43906;DHT22;29564;46.622;13.818;2022-07-12T10:32:26;23.00;63.20
43906;DHT22;29564;46.622;13.818;2022-07-12T10:33:27;23.10;60.30
43906;DHT22;29564;46.622;13.818;2022-07-12T10:34:30;23.10;60.60
43906;DHT22;29564;46.622;13.818;2022-07-12T10:35:31;23.10;62.10
43906;DHT22;29564;46.622;13.818;2022-07-12T10:36:42;23.10;60.30
43906;DHT22;29564;46.622;13.818;2022-07-12T10:39:12;23.10;60.10
43906;DHT22;29564;46.622;13.818;2022-07-12T10:40:15;23.20;60.40
43906;DHT22;29564;46.622;13.818;2022-07-12T10:41:19;23.20;60.90
43906;DHT22;29564;46.622;13.818;2022-07-12T10:42:20;23.30;62.30
43906;DHT22;29564;46.622;13.818;2022-07-12T10:43:25;23.40;60.00
43906;DHT22;29564;46.622;13.818;2022-07-12T10:44:45;23.30;59.80
43906;DHT22;29564;46.622;13.818;2022-07-12T10:45:46;23.30;59.00
43906;DHT22;29564;46.622;13.818;2022-07-12T10:46:58;23.30;60.70
43906;DHT22;29564;46.622;13.818;2022-07-12T10:48:01;23.30;60.70
43906;DHT22;29564;46.622;13.818;2022-07-12T10:51:41;23.40;59.20
43906;DHT22;29564;46.622;13.818;2022-07-12T10:52:42;23.20;59.90
43906;DHT22;29564;46.622;13.818;2022-07-12T10:53:43;23.30;57.50
43906;DHT22;29564;46.622;13.818;2022-07-12T10:54:47;23.20;59.40
43906;DHT22;29564;46.622;13.818;2022-07-12T10:56:08;23.30;59.20
43906;DHT22;29564;46.622;13.818;2022-07-12T10:57:14;23.40;59.20
43906;DHT22;29564;46.622;13.818;2022-07-12T10:58:28;23.50;59.40
43906;DHT22;29564;46.622;13.818;2022-07-12T10:59:32;23.50;59.60
43906;DHT22;29564;46.622;13.818;2022-07-12T11:00:33;23.60;60.40
43906;DHT22;29564;46.622;13.818;2022-07-12T11:01:34;23.50;60.00
43906;DHT22;29564;46.622;13.818;2022-07-12T11:02:36;23.60;60.60
43906;DHT22;29564;46.622;13.818;2022-07-12T11:04:45;23.70;59.60
43906;DHT22;29564;46.622;13.818;2022-07-12T11:05:46;23.80;57.30
43906;DHT22;29564;46.622;13.818;2022-07-12T11:06:48;23.80;58.20
43906;DHT22;29564;46.622;13.818;2022-07-12T11:07:50;23.80;57.70
43906;DHT22;29564;46.622;13.818;2022-07-12T11:08:57;23.80;58.00
43906;DHT22;29564;46.622;13.818;2022-07-12T11:09:59;23.80;58.60
43906;DHT22;29564;46.622;13.818;2022-07-12T11:11:00;24.00;59.70
43906;DHT22;29564;46.622;13.818;2022-07-12T11:12:01;24.00;60.10
43906;DHT22;29564;46.622;13.818;2022-07-12T11:13:19;24.10;60.60
43906;DHT22;29564;46.622;13.818;2022-07-12T11:14:21;24.10;60.80
43906;DHT22;29564;46.622;13.818;2022-07-12T11:15:22;24.10;60.20
43906;DHT22;29564;46.622;13.818;2022-07-12T11:16:23;24.20;61.10
43906;DHT22;29564;46.622;13.818;2022-07-12T11:17:33;24.20;59.40
43906;DHT22;29564;46.622;13.818;2022-07-12T11:18:35;24.20;60.50
43906;DHT22;29564;46.622;13.818;2022-07-12T11:19:36;24.10;60.60
43906;DHT22;29564;46.622;13.818;2022-07-12T11:20:37;24.10;62.00
43906;DHT22;29564;46.622;13.818;2022-07-12T11:21:38;24.10;62.30
43906;DHT22;29564;46.622;13.818;2022-07-12T11:22:40;24.10;60.20
43906;DHT22;29564;46.622;13.818;2022-07-12T11:23:41;24.10;60.00
43906;DHT22;29564;46.622;13.818;2022-07-12T11:24:42;24.10;61.30
43906;DHT22;29564;46.622;13.818;2022-07-12T11:25:43;24.10;59.90
43906;DHT22;29564;46.622;13.818;2022-07-12T11:26:44;24.10;59.50
43906;DHT22;29564;46.622;13.818;2022-07-12T11:27:45;24.30;59.20
43906;DHT22;29564;46.622;13.818;2022-07-12T11:28:46;24.40;58.70
43906;DHT22;29564;46.622;13.818;2022-07-12T11:29:57;24.40;58.10
43906;DHT22;29564;46.622;13.818;2022-07-12T11:32:35;24.40;58.80
43906;DHT22;29564;46.622;13.818;2022-07-12T11:33:38;24.40;58.30
43906;DHT22;29564;46.622;13.818;2022-07-12T11:34:39;24.20;59.20
43906;DHT22;29564;46.622;13.818;2022-07-12T11:35:40;24.20;59.20
43906;DHT22;29564;46.622;13.818;2022-07-12T11:36:43;24.20;59.70
43906;DHT22;29564;46.622;13.818;2022-07-12T11:37:52;24.30;60.00
43906;DHT22;29564;46.622;13.818;2022-07-12T11:38:54;24.30;60.40
43906;DHT22;29564;46.622;13.818;2022-07-12T11:39:55;24.30;60.60
43906;DHT22;29564;46.622;13.818;2022-07-12T11:40:56;24.30;59.10
43906;DHT22;29564;46.622;13.818;2022-07-12T11:41:57;24.30;59.30
43906;DHT22;29564;46.622;13.818;2022-07-12T11:43:00;24.20;59.20
43906;DHT22;29564;46.622;13.818;2022-07-12T11:44:01;24.20;59.60
43906;DHT22;29564;46.622;13.818;2022-07-12T11:45:02;24.20;58.60
43906;DHT22;29564;46.622;13.818;2022-07-12T11:46:04;24.20;59.40
43906;DHT22;29564;46.622;13.818;2022-07-12T11:47:05;24.30;59.70
43906;DHT22;29564;46.622;13.818;2022-07-12T11:48:06;24.30;58.80
43906;DHT22;29564;46.622;13.818;2022-07-12T11:49:08;24.50;58.60
43906;DHT22;29564;46.622;13.818;2022-07-12T11:50:09;24.50;59.80
43906;DHT22;29564;46.622;13.818;2022-07-12T11:51:11;24.50;59.50
43906;DHT22;29564;46.622;13.818;2022-07-12T11:52:19;24.40;59.10
43906;DHT22;29564;46.622;13.818;2022-07-12T11:53:23;24.40;59.80
43906;DHT22;29564;46.622;13.818;2022-07-12T11:54:25;24.40;60.10
43906;DHT22;29564;46.622;13.818;2022-07-12T11:55:26;24.40;60.30
43906;DHT22;29564;46.622;13.818;2022-07-12T11:56:30;24.40;58.60
43906;DHT22;29564;46.622;13.818;2022-07-12T11:57:32;24.40;59.70
43906;DHT22;29564;46.622;13.818;2022-07-12T11:58:33;24.30;57.50
43906;DHT22;29564;46.622;13.818;2022-07-12T11:59:38;24.30;57.60
43906;DHT22;29564;46.622;13.818;2022-07-12T12:00:39;24.30;56.50
43906;DHT22;29564;46.622;13.818;2022-07-12T12:01:40;24.20;57.00
43906;DHT22;29564;46.622;13.818;2022-07-12T12:02:41;24.20;58.50
43906;DHT22;29564;46.622;13.818;2022-07-12T12:03:43;24.30;59.00
43906;DHT22;29564;46.622;13.818;2022-07-12T12:04:46;24.40;58.30
43906;DHT22;29564;46.622;13.818;2022-07-12T12:05:47;24.50;57.50
43906;DHT22;29564;46.622;13.818;2022-07-12T12:06:48;24.60;56.80
43906;DHT22;29564;46.622;13.818;2022-07-12T12:07:49;24.60;57.50
43906;DHT22;29564;46.622;13.818;2022-07-12T12:08:50;24.60;59.00
43906;DHT22;29564;46.622;13.818;2022-07-12T12:11:01;24.80;58.10
43906;DHT22;29564;46.622;13.818;2022-07-12T12:12:03;24.80;57.70
43906;DHT22;29564;46.622;13.818;2022-07-12T12:13:14;24.90;57.00
43906;DHT22;29564;46.622;13.818;2022-07-12T12:14:16;24.90;57.60
43906;DHT22;29564;46.622;13.818;2022-07-12T12:15:18;24.80;58.00
43906;DHT22;29564;46.622;13.818;2022-07-12T12:16:19;24.80;57.20
43906;DHT22;29564;46.622;13.818;2022-07-12T12:17:20;24.70;56.70
43906;DHT22;29564;46.622;13.818;2022-07-12T12:18:55;24.70;56.80
43906;DHT22;29564;46.622;13.818;2022-07-12T12:19:48;24.60;56.50
43906;DHT22;29564;46.622;13.818;2022-07-12T12:20:56;24.50;55.50
43906;DHT22;29564;46.622;13.818;2022-07-12T12:21:57;24.40;57.00
43906;DHT22;29564;46.622;13.818;2022-07-12T12:22:58;24.40;58.50
43906;DHT22;29564;46.622;13.818;2022-07-12T12:24:09;24.30;57.60
43906;DHT22;29564;46.622;13.818;2022-07-12T12:25:10;24.20;57.20
43906;DHT22;29564;46.622;13.818;2022-07-12T12:26:18;24.20;59.60
43906;DHT22;29564;46.622;13.818;2022-07-12T12:27:24;24.10;58.20
43906;DHT22;29564;46.622;13.818;2022-07-12T12:28:25;24.10;60.20
43906;DHT22;29564;46.622;13.818;2022-07-12T12:29:40;24.10;57.20
43906;DHT22;29564;46.622;13.818;2022-07-12T12:30:49;24.20;59.00
43906;DHT22;29564;46.622;13.818;2022-07-12T12:31:57;24.20;57.80
43906;DHT22;29564;46.622;13.818;2022-07-12T12:32:59;24.20;58.70
43906;DHT22;29564;46.622;13.818;2022-07-12T12:34:00;24.10;58.10
43906;DHT22;29564;46.622;13.818;2022-07-12T12:35:10;24.20;58.30
43906;DHT22;29564;46.622;13.818;2022-07-12T12:36:14;24.20;57.90
43906;DHT22;29564;46.622;13.818;2022-07-12T12:37:17;24.30;62.20
43906;DHT22;29564;46.622;13.818;2022-07-12T12:38:18;24.40;58.90
43906;DHT22;29564;46.622;13.818;2022-07-12T12:39:28;24.50;58.70
43906;DHT22;29564;46.622;13.818;2022-07-12T12:40:30;24.70;57.10
43906;DHT22;29564;46.622;13.818;2022-07-12T12:41:38;24.70;58.60
43906;DHT22;29564;46.622;13.818;2022-07-12T12:42:40;24.80;57.80
43906;DHT22;29564;46.622;13.818;2022-07-12T12:43:41;24.80;58.10
43906;DHT22;29564;46.622;13.818;2022-07-12T12:44:42;24.90;59.70
43906;DHT22;29564;46.622;13.818;2022-07-12T12:45:55;25.00;57.90
43906;DHT22;29564;46.622;13.818;2022-07-12T12:46:58;25.10;56.80
43906;DHT22;29564;46.622;13.818;2022-07-12T12:48:18;25.10;57.50
43906;DHT22;29564;46.622;13.818;2022-07-12T12:49:19;25.10;57.80
43906;DHT22;29564;46.622;13.818;2022-07-12T12:51:57;25.10;58.40
43906;DHT22;29564;46.622;13.818;2022-07-12T12:53:06;25.00;58.10
43906;DHT22;29564;46.622;13.818;2022-07-12T12:54:07;24.90;60.40
43906;DHT22;29564;46.622;13.818;2022-07-12T12:55:09;24.90;58.70
43906;DHT22;29564;46.622;13.818;2022-07-12T12:56:14;24.80;58.60
43906;DHT22;29564;46.622;13.818;2022-07-12T12:57:15;24.80;59.30
43906;DHT22;29564;46.622;13.818;2022-07-12T12:58:16;24.80;59.10
43906;DHT22;29564;46.622;13.818;2022-07-12T12:59:17;24.90;60.20
43906;DHT22;29564;46.622;13.818;2022-07-12T13:00:18;24.90;60.50
43906;DHT22;29564;46.622;13.818;2022-07-12T13:01:19;25.00;59.50
43906;DHT22;29564;46.622;13.818;2022-07-12T13:02:20;25.10;59.80
43906;DHT22;29564;46.622;13.818;2022-07-12T13:03:23;25.10;59.60
43906;DHT22;29564;46.622;13.818;2022-07-12T13:04:28;25.30;58.90
43906;DHT22;29564;46.622;13.818;2022-07-12T13:05:29;25.40;57.00
43906;DHT22;29564;46.622;13.818;2022-07-12T13:06:30;25.50;57.50
43906;DHT22;29564;46.622;13.818;2022-07-12T13:07:31;25.40;57.40
43906;DHT22;29564;46.622;13.818;2022-07-12T13:08:32;25.30;59.40
43906;DHT22;29564;46.622;13.818;2022-07-12T13:09:33;25.30;58.80
43906;DHT22;29564;46.622;13.818;2022-07-12T13:10:34;25.30;57.70
43906;DHT22;29564;46.622;13.818;2022-07-12T13:11:35;25.40;57.40
43906;DHT22;29564;46.622;13.818;2022-07-12T13:12:36;25.50;58.00
43906;DHT22;29564;46.622;13.818;2022-07-12T13:13:38;25.50;58.90
43906;DHT22;29564;46.622;13.818;2022-07-12T13:14:39;25.50;58.60
43906;DHT22;29564;46.622;13.818;2022-07-12T13:15:40;25.60;58.50
43906;DHT22;29564;46.622;13.818;2022-07-12T13:16:41;25.70;55.90
43906;DHT22;29564;46.622;13.818;2022-07-12T13:17:42;25.80;57.40
43906;DHT22;29564;46.622;13.818;2022-07-12T13:18:43;25.70;56.70
43906;DHT22;29564;46.622;13.818;2022-07-12T13:19:44;25.80;56.60
43906;DHT22;29564;46.622;13.818;2022-07-12T13:20:45;25.80;58.00
43906;DHT22;29564;46.622;13.818;2022-07-12T13:21:46;25.90;58.50
43906;DHT22;29564;46.622;13.818;2022-07-12T13:22:47;25.90;56.30
43906;DHT22;29564;46.622;13.818;2022-07-12T13:23:48;25.80;57.00
43906;DHT22;29564;46.622;13.818;2022-07-12T13:24:49;25.90;59.00
43906;DHT22;29564;46.622;13.818;2022-07-12T13:25:50;25.80;57.70
43906;DHT22;29564;46.622;13.818;2022-07-12T13:26:51;25.90;58.00
43906;DHT22;29564;46.622;13.818;2022-07-12T13:27:52;25.80;57.90
43906;DHT22;29564;46.622;13.818;2022-07-12T13:28:54;25.80;57.80
43906;DHT22;29564;46.622;13.818;2022-07-12T13:29:55;25.60;55.40
43906;DHT22;29564;46.622;13.818;2022-07-12T13:30:56;25.50;55.60
43906;DHT22;29564;46.622;13.818;2022-07-12T13:31:57;25.40;56.10
43906;DHT22;29564;46.622;13.818;2022-07-12T13:32:58;25.40;57.40
43906;DHT22;29564;46.622;13.818;2022-07-12T13:33:58;25.30;57.00
43906;DHT22;29564;46.622;13.818;2022-07-12T13:35:00;25.30;56.70
43906;DHT22;29564;46.622;13.818;2022-07-12T13:36:01;25.20;57.20
43906;DHT22;29564;46.622;13.818;2022-07-12T13:37:02;25.20;58.20
43906;DHT22;29564;46.622;13.818;2022-07-12T13:38:04;25.10;57.90
43906;DHT22;29564;46.622;13.818;2022-07-12T13:39:05;25.00;58.70
43906;DHT22;29564;46.622;13.818;2022-07-12T13:40:24;25.00;59.40
43906;DHT22;29564;46.622;13.818;2022-07-12T13:41:25;24.90;58.90
43906;DHT22;29564;46.622;13.818;2022-07-12T13:42:26;24.90;58.00
43906;DHT22;29564;46.622;13.818;2022-07-12T13:43:27;24.90;58.30
43906;DHT22;29564;46.622;13.818;2022-07-12T13:44:28;24.80;59.70
43906;DHT22;29564;46.622;13.818;2022-07-12T13:45:29;24.80;59.50
43906;DHT22;29564;46.622;13.818;2022-07-12T13:46:30;24.80;58.20
43906;DHT22;29564;46.622;13.818;2022-07-12T13:47:31;24.80;60.20
43906;DHT22;29564;46.622;13.818;2022-07-12T13:48:32;24.90;59.20
43906;DHT22;29564;46.622;13.818;2022-07-12T13:49:34;25.00;58.30
43906;DHT22;29564;46.622;13.818;2022-07-12T13:50:35;25.10;58.90
43906;DHT22;29564;46.622;13.818;2022-07-12T13:51:36;25.20;58.60
43906;DHT22;29564;46.622;13.818;2022-07-12T13:52:37;25.40;59.60
43906;DHT22;29564;46.622;13.818;2022-07-12T13:53:38;25.50;56.60
43906;DHT22;29564;46.622;13.818;2022-07-12T13:54:39;25.50;57.70
43906;DHT22;29564;46.622;13.818;2022-07-12T13:55:43;25.50;57.00
43906;DHT22;29564;46.622;13.818;2022-07-12T13:56:45;25.60;57.20
43906;DHT22;29564;46.622;13.818;2022-07-12T13:57:47;25.60;57.50
43906;DHT22;29564;46.622;13.818;2022-07-12T13:58:48;25.70;56.40
43906;DHT22;29564;46.622;13.818;2022-07-12T13:59:50;25.80;57.40
43906;DHT22;29564;46.622;13.818;2022-07-12T14:00:51;25.80;57.30
43906;DHT22;29564;46.622;13.818;2022-07-12T14:01:52;25.90;57.10
43906;DHT22;29564;46.622;13.818;2022-07-12T14:02:54;25.90;55.60
43906;DHT22;29564;46.622;13.818;2022-07-12T14:03:55;26.00;55.90
43906;DHT22;29564;46.622;13.818;2022-07-12T14:04:56;26.00;56.90
43906;DHT22;29564;46.622;13.818;2022-07-12T14:05:57;26.00;57.10
43906;DHT22;29564;46.622;13.818;2022-07-12T14:06:57;26.10;57.30
43906;DHT22;29564;46.622;13.818;2022-07-12T14:07:59;26.10;55.40
43906;DHT22;29564;46.622;13.818;2022-07-12T14:08:59;26.00;55.70
43906;DHT22;29564;46.622;13.818;2022-07-12T14:10:00;26.00;55.60
43906;DHT22;29564;46.622;13.818;2022-07-12T14:11:01;26.10;56.30
43906;DHT22;29564;46.622;13.818;2022-07-12T14:12:04;26.10;57.60
43906;DHT22;29564;46.622;13.818;2022-07-12T14:13:05;26.00;55.50
43906;DHT22;29564;46.622;13.818;2022-07-12T14:14:06;25.90;55.50
43906;DHT22;29564;46.622;13.818;2022-07-12T14:15:07;25.90;54.50
43906;DHT22;29564;46.622;13.818;2022-07-12T14:16:11;25.90;55.30
43906;DHT22;29564;46.622;13.818;2022-07-12T14:17:14;26.00;56.30
43906;DHT22;29564;46.622;13.818;2022-07-12T14:18:15;26.00;56.60
43906;DHT22;29564;46.622;13.818;2022-07-12T14:19:16;26.10;55.70
43906;DHT22;29564;46.622;13.818;2022-07-12T14:20:20;26.20;55.00
43906;DHT22;29564;46.622;13.818;2022-07-12T14:21:21;26.00;55.40
43906;DHT22;29564;46.622;13.818;2022-07-12T14:22:22;26.00;55.10
43906;DHT22;29564;46.622;13.818;2022-07-12T14:23:23;25.90;52.30
43906;DHT22;29564;46.622;13.818;2022-07-12T14:24:24;25.90;53.80
43906;DHT22;29564;46.622;13.818;2022-07-12T14:25:25;25.70;53.60
43906;DHT22;29564;46.622;13.818;2022-07-12T14:26:29;25.70;55.50
43906;DHT22;29564;46.622;13.818;2022-07-12T14:27:39;25.60;52.90
43906;DHT22;29564;46.622;13.818;2022-07-12T14:28:40;25.70;52.50
43906;DHT22;29564;46.622;13.818;2022-07-12T14:29:41;25.60;52.70
43906;DHT22;29564;46.622;13.818;2022-07-12T14:30:42;25.50;52.40
43906;DHT22;29564;46.622;13.818;2022-07-12T14:31:43;25.50;55.10
43906;DHT22;29564;46.622;13.818;2022-07-12T14:32:44;25.30;53.20
43906;DHT22;29564;46.622;13.818;2022-07-12T14:33:45;25.30;53.70
43906;DHT22;29564;46.622;13.818;2022-07-12T14:34:46;25.30;54.20
43906;DHT22;29564;46.622;13.818;2022-07-12T14:35:47;25.40;54.20
43906;DHT22;29564;46.622;13.818;2022-07-12T14:36:48;25.50;53.10
43906;DHT22;29564;46.622;13.818;2022-07-12T14:37:48;25.60;54.00
43906;DHT22;29564;46.622;13.818;2022-07-12T14:38:50;25.80;53.50
43906;DHT22;29564;46.622;13.818;2022-07-12T14:39:51;25.90;55.10
43906;DHT22;29564;46.622;13.818;2022-07-12T14:40:52;25.90;56.10
43906;DHT22;29564;46.622;13.818;2022-07-12T14:41:53;25.90;52.00
43906;DHT22;29564;46.622;13.818;2022-07-12T14:42:54;25.90;54.70
43906;DHT22;29564;46.622;13.818;2022-07-12T14:43:57;25.80;52.80
43906;DHT22;29564;46.622;13.818;2022-07-12T14:44:58;25.70;54.40
43906;DHT22;29564;46.622;13.818;2022-07-12T14:45:59;25.60;54.30
43906;DHT22;29564;46.622;13.818;2022-07-12T14:47:00;25.50;55.20
43906;DHT22;29564;46.622;13.818;2022-07-12T14:48:01;25.40;52.60
43906;DHT22;29564;46.622;13.818;2022-07-12T14:49:02;25.30;53.60
43906;DHT22;29564;46.622;13.818;2022-07-12T14:50:03;25.40;53.90
43906;DHT22;29564;46.622;13.818;2022-07-12T14:51:05;25.40;54.30
43906;DHT22;29564;46.622;13.818;2022-07-12T14:52:06;25.60;55.60
43906;DHT22;29564;46.622;13.818;2022-07-12T14:53:07;25.70;54.50
43906;DHT22;29564;46.622;13.818;2022-07-12T14:54:08;25.80;55.10
43906;DHT22;29564;46.622;13.818;2022-07-12T14:55:09;25.90;55.90
43906;DHT22;29564;46.622;13.818;2022-07-12T14:56:10;26.00;55.00
43906;DHT22;29564;46.622;13.818;2022-07-12T14:57:11;26.00;55.40
43906;DHT22;29564;46.622;13.818;2022-07-12T14:58:12;26.10;54.70
43906;DHT22;29564;46.622;13.818;2022-07-12T14:59:13;26.10;53.70
43906;DHT22;29564;46.622;13.818;2022-07-12T15:00:14;26.10;52.80
43906;DHT22;29564;46.622;13.818;2022-07-12T15:01:15;26.10;53.50
43906;DHT22;29564;46.622;13.818;2022-07-12T15:02:16;26.00;52.40
43906;DHT22;29564;46.622;13.818;2022-07-12T15:03:17;26.00;53.20
43906;DHT22;29564;46.622;13.818;2022-07-12T15:04:18;26.00;55.20
43906;DHT22;29564;46.622;13.818;2022-07-12T15:05:19;26.10;56.00
43906;DHT22;29564;46.622;13.818;2022-07-12T15:06:20;26.10;53.90
43906;DHT22;29564;46.622;13.818;2022-07-12T15:07:21;26.20;55.40
43906;DHT22;29564;46.622;13.818;2022-07-12T15:08:22;26.20;54.10
43906;DHT22;29564;46.622;13.818;2022-07-12T15:09:23;26.20;54.90
43906;DHT22;29564;46.622;13.818;2022-07-12T15:10:24;26.30;53.40
43906;DHT22;29564;46.622;13.818;2022-07-12T15:11:25;26.30;54.30
43906;DHT22;29564;46.622;13.818;2022-07-12T15:12:27;26.20;54.90
43906;DHT22;29564;46.622;13.818;2022-07-12T15:13:29;26.30;55.80
43906;DHT22;29564;46.622;13.818;2022-07-12T15:14:30;26.30;53.70
43906;DHT22;29564;46.622;13.818;2022-07-12T15:15:34;26.40;57.70
43906;DHT22;29564;46.622;13.818;2022-07-12T15:16:35;26.40;57.20
43906;DHT22;29564;46.622;13.818;2022-07-12T15:17:36;26.40;55.40
43906;DHT22;29564;46.622;13.818;2022-07-12T15:18:37;26.40;57.40
43906;DHT22;29564;46.622;13.818;2022-07-12T15:19:38;26.40;58.20
43906;DHT22;29564;46.622;13.818;2022-07-12T15:20:39;26.40;57.10
43906;DHT22;29564;46.622;13.818;2022-07-12T15:21:40;26.40;56.60
43906;DHT22;29564;46.622;13.818;2022-07-12T15:22:41;26.40;54.10
43906;DHT22;29564;46.622;13.818;2022-07-12T15:23:42;26.50;55.20
43906;DHT22;29564;46.622;13.818;2022-07-12T15:24:43;26.50;52.50
43906;DHT22;29564;46.622;13.818;2022-07-12T15:25:44;26.50;52.20
43906;DHT22;29564;46.622;13.818;2022-07-12T15:26:46;26.60;52.50
43906;DHT22;29564;46.622;13.818;2022-07-12T15:27:47;26.50;53.00
43906;DHT22;29564;46.622;13.818;2022-07-12T15:28:52;26.50;54.00
43906;DHT22;29564;46.622;13.818;2022-07-12T15:29:53;26.60;52.70
43906;DHT22;29564;46.622;13.818;2022-07-12T15:30:55;26.50;53.80
43906;DHT22;29564;46.622;13.818;2022-07-12T15:31:56;26.50;52.80
43906;DHT22;29564;46.622;13.818;2022-07-12T15:32:57;26.50;51.20
43906;DHT22;29564;46.622;13.818;2022-07-12T15:33:58;26.50;51.10
43906;DHT22;29564;46.622;13.818;2022-07-12T15:34:59;26.50;51.20
43906;DHT22;29564;46.622;13.818;2022-07-12T15:36:00;26.50;52.20